sensor_id;sensor_type;location;lat;lon;timestamp;temperature;humidity
15003;DHT22;7597;53.590;10.020;2023-02-01T00:01:07;5.40;1.00
15003;DHT22;7597;53.590;10.020;2023-02-01T00:03:33;5.40;1.00
15003;DHT22;7597;53.590;10.020;2023-02-01T00:06:00;5.40;1.00
15003;DHT22;7597;53.590;10.020;2023-02-01T00:08:27;5.40;1.00
15003;DHT22;7597;53.590;10.020;2023-02-01T00:10:59;5.40;1.00
15003;DHT22;7597;53.590;10.020;2023-02-01T00:13:27;5.40;1.00
15003;DHT22;7597;53.590;10.020;2023-02-01T00:15:53;5.40;1.00
15003;DHT22;7597;53.590;10.020;2023-02-01T00:18:20;5.40;1.00
15003;DHT22;7597;53.590;10.020;2023-02-01T00:20:47;5.30;1.00
15003;DHT22;7597;53.590;10.020;2023-02-01T00:23:14;5.30;1.00
15003;DHT22;7597;53.590;10.020;2023-02-01T00:25:41;5.40;1.00
15003;DHT22;7597;53.590;10.020;2023-02-01T00:28:08;5.30;1.00
15003;DHT22;7597;53.590;10.020;2023-02-01T00:30:34;5.30;1.00
15003;DHT22;7597;53.590;10.020;2023-02-01T00:33:01;5.30;1.00
15003;DHT22;7597;53.590;10.020;2023-02-01T00:35:28;5.30;1.00
15003;DHT22;7597;53.590;10.020;2023-02-01T00:37:55;5.30;1.00
15003;DHT22;7597;53.590;10.020;2023-02-01T00:40:22;5.40;1.00
15003;DHT22;7597;53.590;10.020;2023-02-01T00:42:48;5.40;1.00
15003;DHT22;7597;53.590;10.020;2023-02-01T00:45:15;5.40;1.00
15003;DHT22;7597;53.590;10.020;2023-02-01T00:47:42;5.40;1.00
15003;DHT22;7597;53.590;10.020;2023-02-01T00:50:09;5.40;1.00
15003;DHT22;7597;53.590;10.020;2023-02-01T00:52:36;5.50;1.00
15003;DHT22;7597;53.590;10.020;2023-02-01T00:55:03;5.50;1.00
15003;DHT22;7597;53.590;10.020;2023-02-01T00:57:30;5.70;1.00
15003;DHT22;7597;53.590;10.020;2023-02-01T00:59:56;5.60;1.00
15003;DHT22;7597;53.590;10.020;2023-02-01T01:02:24;5.60;1.00
15003;DHT22;7597;53.590;10.020;2023-02-01T01:04:50;5.60;1.00
15003;DHT22;7597;53.590;10.020;2023-02-01T01:07:16;5.80;1.00
15003;DHT22;7597;53.590;10.020;2023-02-01T01:09:43;5.40;1.00
15003;DHT22;7597;53.590;10.020;2023-02-01T01:12:10;5.70;1.00
15003;DHT22;7597;53.590;10.020;2023-02-01T01:14:36;5.70;1.00
15003;DHT22;7597;53.590;10.020;2023-02-01T01:17:03;5.60;1.00
15003;DHT22;7597;53.590;10.020;2023-02-01T01:19:30;5.60;1.00
15003;DHT22;7597;53.590;10.020;2023-02-01T01:21:57;5.60;1.00
15003;DHT22;7597;53.590;10.020;2023-02-01T01:24:24;5.60;1.00
15003;DHT22;7597;53.590;10.020;2023-02-01T01:26:51;5.60;1.00
15003;DHT22;7597;53.590;10.020;2023-02-01T01:29:17;5.60;1.00
15003;DHT22;7597;53.590;10.020;2023-02-01T01:31:44;5.50;1.00
15003;DHT22;7597;53.590;10.020;2023-02-01T01:34:11;5.60;1.00
15003;DHT22;7597;53.590;10.020;2023-02-01T01:36:38;5.50;1.00
15003;DHT22;7597;53.590;10.020;2023-02-01T01:39:05;5.60;1.00
15003;DHT22;7597;53.590;10.020;2023-02-01T01:41:31;5.50;1.00
15003;DHT22;7597;53.590;10.020;2023-02-01T01:44:02;5.60;1.00
15003;DHT22;7597;53.590;10.020;2023-02-01T01:46:32;5.60;1.00
15003;DHT22;7597;53.590;10.020;2023-02-01T01:49:08;5.60;1.00
15003;DHT22;7597;53.590;10.020;2023-02-01T01:51:35;5.60;1.00
15003;DHT22;7597;53.590;10.020;2023-02-01T01:54:18;5.60;1.00
15003;DHT22;7597;53.590;10.020;2023-02-01T01:56:43;5.70;1.00
15003;DHT22;7597;53.590;10.020;2023-02-01T01:59:10;5.60;1.00
15003;DHT22;7597;53.590;10.020;2023-02-01T02:01:36;5.70;1.00
15003;DHT22;7597;53.590;10.020;2023-02-01T02:04:03;5.70;1.00
15003;DHT22;7597;53.590;10.020;2023-02-01T02:06:45;5.70;1.00
15003;DHT22;7597;53.590;10.020;2023-02-01T02:09:09;5.70;1.00
15003;DHT22;7597;53.590;10.020;2023-02-01T02:11:36;5.70;1.00
15003;DHT22;7597;53.590;10.020;2023-02-01T02:14:03;5.70;1.00
15003;DHT22;7597;53.590;10.020;2023-02-01T02:16:54;5.70;1.00
15003;DHT22;7597;53.590;10.020;2023-02-01T02:24:49;5.70;1.00
15003;DHT22;7597;53.590;10.020;2023-02-01T02:27:16;5.70;1.00
15003;DHT22;7597;53.590;10.020;2023-02-01T02:30:05;5.70;1.00
15003;DHT22;7597;53.590;10.020;2023-02-01T02:32:37;5.70;1.00
15003;DHT22;7597;53.590;10.020;2023-02-01T02:36:10;5.70;1.00
15003;DHT22;7597;53.590;10.020;2023-02-01T02:37:54;5.80;1.00
15003;DHT22;7597;53.590;10.020;2023-02-01T02:40:37;5.70;1.00
15003;DHT22;7597;53.590;10.020;2023-02-01T02:43:15;5.70;1.00
15003;DHT22;7597;53.590;10.020;2023-02-01T02:45:51;5.60;1.00
15003;DHT22;7597;53.590;10.020;2023-02-01T02:48:44;5.60;1.00
15003;DHT22;7597;53.590;10.020;2023-02-01T02:53:56;5.60;1.00
15003;DHT22;7597;53.590;10.020;2023-02-01T02:56:24;5.60;1.00
15003;DHT22;7597;53.590;10.020;2023-02-01T02:58:57;5.60;1.00
15003;DHT22;7597;53.590;10.020;2023-02-01T03:01:30;5.50;1.00
15003;DHT22;7597;53.590;10.020;2023-02-01T03:04:02;5.40;1.00
15003;DHT22;7597;53.590;10.020;2023-02-01T03:06:41;5.40;1.00
15003;DHT22;7597;53.590;10.020;2023-02-01T03:09:10;5.40;1.00
15003;DHT22;7597;53.590;10.020;2023-02-01T03:11:34;5.40;1.00
15003;DHT22;7597;53.590;10.020;2023-02-01T03:14:06;5.30;1.00
15003;DHT22;7597;53.590;10.020;2023-02-01T03:16:34;5.30;1.00
15003;DHT22;7597;53.590;10.020;2023-02-01T03:19:02;5.20;1.00
15003;DHT22;7597;53.590;10.020;2023-02-01T03:21:34;5.20;11.10
15003;DHT22;7597;53.590;10.020;2023-02-01T03:24:02;5.10;73.30
15003;DHT22;7597;53.590;10.020;2023-02-01T03:26:27;5.10;70.20
15003;DHT22;7597;53.590;10.020;2023-02-01T03:28:56;5.10;79.60
15003;DHT22;7597;53.590;10.020;2023-02-01T03:31:22;5.10;86.10
15003;DHT22;7597;53.590;10.020;2023-02-01T03:33:48;5.10;92.00
15003;DHT22;7597;53.590;10.020;2023-02-01T03:36:18;5.00;94.90
15003;DHT22;7597;53.590;10.020;2023-02-01T03:38:48;5.00;96.70
15003;DHT22;7597;53.590;10.020;2023-02-01T03:41:15;5.00;96.70
15003;DHT22;7597;53.590;10.020;2023-02-01T03:43:51;4.80;95.80
15003;DHT22;7597;53.590;10.020;2023-02-01T03:46:20;4.80;96.60
15003;DHT22;7597;53.590;10.020;2023-02-01T03:48:45;4.70;97.50
15003;DHT22;7597;53.590;10.020;2023-02-01T03:51:12;4.70;99.20
15003;DHT22;7597;53.590;10.020;2023-02-01T03:53:39;4.70;99.90
15003;DHT22;7597;53.590;10.020;2023-02-01T03:56:06;4.70;99.90
15003;DHT22;7597;53.590;10.020;2023-02-01T03:58:32;4.70;99.90
15003;DHT22;7597;53.590;10.020;2023-02-01T04:00:59;4.70;99.90
15003;DHT22;7597;53.590;10.020;2023-02-01T04:03:26;4.70;99.90
15003;DHT22;7597;53.590;10.020;2023-02-01T04:05:52;4.70;99.90
15003;DHT22;7597;53.590;10.020;2023-02-01T04:08:19;4.70;99.90
15003;DHT22;7597;53.590;10.020;2023-02-01T04:10:45;4.70;99.90
15003;DHT22;7597;53.590;10.020;2023-02-01T04:13:12;4.70;99.90
15003;DHT22;7597;53.590;10.020;2023-02-01T04:15:39;4.70;99.90
15003;DHT22;7597;53.590;10.020;2023-02-01T04:18:05;4.70;99.90
15003;DHT22;7597;53.590;10.020;2023-02-01T04:20:32;4.70;99.90
15003;DHT22;7597;53.590;10.020;2023-02-01T04:22:59;4.70;99.90
15003;DHT22;7597;53.590;10.020;2023-02-01T04:25:25;4.70;99.90
15003;DHT22;7597;53.590;10.020;2023-02-01T04:27:52;4.70;99.90
15003;DHT22;7597;53.590;10.020;2023-02-01T04:30:19;4.70;99.90
15003;DHT22;7597;53.590;10.020;2023-02-01T04:32:45;4.70;99.90
15003;DHT22;7597;53.590;10.020;2023-02-01T04:35:12;4.70;99.90
15003;DHT22;7597;53.590;10.020;2023-02-01T04:37:42;4.60;99.90
15003;DHT22;7597;53.590;10.020;2023-02-01T04:40:10;4.60;99.90
15003;DHT22;7597;53.590;10.020;2023-02-01T04:42:37;4.60;99.90
15003;DHT22;7597;53.590;10.020;2023-02-01T04:45:04;4.60;99.90
15003;DHT22;7597;53.590;10.020;2023-02-01T04:47:31;4.60;99.90
15003;DHT22;7597;53.590;10.020;2023-02-01T04:49:57;4.60;99.90
15003;DHT22;7597;53.590;10.020;2023-02-01T04:52:24;4.60;99.90
15003;DHT22;7597;53.590;10.020;2023-02-01T04:54:51;4.50;99.90
15003;DHT22;7597;53.590;10.020;2023-02-01T04:57:17;4.50;99.90
15003;DHT22;7597;53.590;10.020;2023-02-01T04:59:44;4.50;99.90
15003;DHT22;7597;53.590;10.020;2023-02-01T05:02:10;4.50;99.90
15003;DHT22;7597;53.590;10.020;2023-02-01T05:04:38;4.50;99.90
15003;DHT22;7597;53.590;10.020;2023-02-01T05:07:04;4.40;99.90
15003;DHT22;7597;53.590;10.020;2023-02-01T05:09:31;4.40;99.90
15003;DHT22;7597;53.590;10.020;2023-02-01T05:11:57;4.40;99.90
15003;DHT22;7597;53.590;10.020;2023-02-01T05:14:30;4.30;99.90
15003;DHT22;7597;53.590;10.020;2023-02-01T05:16:56;4.30;99.90
15003;DHT22;7597;53.590;10.020;2023-02-01T05:19:23;4.10;99.90
15003;DHT22;7597;53.590;10.020;2023-02-01T05:21:49;4.00;99.90
15003;DHT22;7597;53.590;10.020;2023-02-01T05:24:16;3.80;99.90
15003;DHT22;7597;53.590;10.020;2023-02-01T05:26:43;3.70;99.90
15003;DHT22;7597;53.590;10.020;2023-02-01T05:29:10;3.60;99.90
15003;DHT22;7597;53.590;10.020;2023-02-01T05:31:37;3.50;99.90
15003;DHT22;7597;53.590;10.020;2023-02-01T05:34:03;3.40;99.90
15003;DHT22;7597;53.590;10.020;2023-02-01T05:36:30;3.40;99.90
15003;DHT22;7597;53.590;10.020;2023-02-01T05:38:56;3.40;99.90
15003;DHT22;7597;53.590;10.020;2023-02-01T05:41:23;3.40;99.90
15003;DHT22;7597;53.590;10.020;2023-02-01T05:43:49;3.30;99.90
15003;DHT22;7597;53.590;10.020;2023-02-01T05:46:17;3.30;99.90
15003;DHT22;7597;53.590;10.020;2023-02-01T05:48:45;3.30;99.90
15003;DHT22;7597;53.590;10.020;2023-02-01T05:51:11;3.20;99.90
15003;DHT22;7597;53.590;10.020;2023-02-01T05:53:38;3.20;99.90
15003;DHT22;7597;53.590;10.020;2023-02-01T05:56:05;3.20;99.90
15003;DHT22;7597;53.590;10.020;2023-02-01T05:58:32;3.10;99.90
15003;DHT22;7597;53.590;10.020;2023-02-01T06:01:00;3.20;99.90
15003;DHT22;7597;53.590;10.020;2023-02-01T06:03:26;3.10;99.90
15003;DHT22;7597;53.590;10.020;2023-02-01T06:05:54;3.00;99.90
15003;DHT22;7597;53.590;10.020;2023-02-01T06:08:20;3.00;99.90
15003;DHT22;7597;53.590;10.020;2023-02-01T06:10:47;3.00;99.90
15003;DHT22;7597;53.590;10.020;2023-02-01T06:13:13;3.00;99.90
15003;DHT22;7597;53.590;10.020;2023-02-01T06:15:40;3.00;99.90
15003;DHT22;7597;53.590;10.020;2023-02-01T06:18:07;3.00;99.90
15003;DHT22;7597;53.590;10.020;2023-02-01T06:20:33;3.00;99.90
15003;DHT22;7597;53.590;10.020;2023-02-01T06:23:00;3.00;99.90
15003;DHT22;7597;53.590;10.020;2023-02-01T06:25:27;3.00;99.90
15003;DHT22;7597;53.590;10.020;2023-02-01T06:27:53;3.00;99.90
15003;DHT22;7597;53.590;10.020;2023-02-01T06:30:20;3.10;99.90
15003;DHT22;7597;53.590;10.020;2023-02-01T06:32:49;3.00;99.90
15003;DHT22;7597;53.590;10.020;2023-02-01T06:35:13;3.10;99.90
15003;DHT22;7597;53.590;10.020;2023-02-01T06:37:40;3.20;99.90
15003;DHT22;7597;53.590;10.020;2023-02-01T06:40:08;3.20;99.90
15003;DHT22;7597;53.590;10.020;2023-02-01T06:42:34;3.20;99.90
15003;DHT22;7597;53.590;10.020;2023-02-01T06:45:01;3.20;99.90
15003;DHT22;7597;53.590;10.020;2023-02-01T06:47:28;3.40;99.90
15003;DHT22;7597;53.590;10.020;2023-02-01T06:49:54;3.40;99.90
15003;DHT22;7597;53.590;10.020;2023-02-01T06:52:21;3.40;99.90
15003;DHT22;7597;53.590;10.020;2023-02-01T06:54:48;3.50;99.90
15003;DHT22;7597;53.590;10.020;2023-02-01T06:57:14;3.50;99.90
15003;DHT22;7597;53.590;10.020;2023-02-01T06:59:41;3.60;99.90
15003;DHT22;7597;53.590;10.020;2023-02-01T07:02:10;3.80;99.90
15003;DHT22;7597;53.590;10.020;2023-02-01T07:07:33;3.70;99.90
15003;DHT22;7597;53.590;10.020;2023-02-01T07:15:41;3.90;1.00
15003;DHT22;7597;53.590;10.020;2023-02-01T07:18:09;3.80;1.00
15003;DHT22;7597;53.590;10.020;2023-02-01T07:20:36;3.90;1.00
15003;DHT22;7597;53.590;10.020;2023-02-01T07:23:03;3.90;1.00
15003;DHT22;7597;53.590;10.020;2023-02-01T07:34:17;4.10;1.00
15003;DHT22;7597;53.590;10.020;2023-02-01T07:36:47;4.20;1.00
15003;DHT22;7597;53.590;10.020;2023-02-01T07:39:14;4.30;1.00
15003;DHT22;7597;53.590;10.020;2023-02-01T07:41:40;4.30;1.00
15003;DHT22;7597;53.590;10.020;2023-02-01T07:44:07;4.20;1.00
15003;DHT22;7597;53.590;10.020;2023-02-01T07:46:33;4.10;99.90
15003;DHT22;7597;53.590;10.020;2023-02-01T07:49:00;4.10;99.90
15003;DHT22;7597;53.590;10.020;2023-02-01T07:51:27;4.20;99.90
15003;DHT22;7597;53.590;10.020;2023-02-01T07:53:53;4.20;1.00
15003;DHT22;7597;53.590;10.020;2023-02-01T07:56:20;4.70;1.00
15003;DHT22;7597;53.590;10.020;2023-02-01T07:58:48;4.70;1.00
15003;DHT22;7597;53.590;10.020;2023-02-01T08:01:15;4.30;1.00
15003;DHT22;7597;53.590;10.020;2023-02-01T08:03:47;4.40;1.00
15003;DHT22;7597;53.590;10.020;2023-02-01T08:06:13;4.50;1.00
15003;DHT22;7597;53.590;10.020;2023-02-01T08:08:48;4.60;1.00
15003;DHT22;7597;53.590;10.020;2023-02-01T08:11:16;4.70;1.00
15003;DHT22;7597;53.590;10.020;2023-02-01T08:13:42;4.70;1.00
15003;DHT22;7597;53.590;10.020;2023-02-01T08:16:09;4.70;1.00
15003;DHT22;7597;53.590;10.020;2023-02-01T08:18:36;4.80;1.00
15003;DHT22;7597;53.590;10.020;2023-02-01T08:21:08;4.80;1.00
15003;DHT22;7597;53.590;10.020;2023-02-01T08:23:34;4.80;1.00
15003;DHT22;7597;53.590;10.020;2023-02-01T08:26:06;4.80;1.00
15003;DHT22;7597;53.590;10.020;2023-02-01T08:28:33;4.90;1.00
15003;DHT22;7597;53.590;10.020;2023-02-01T08:31:03;5.00;1.00
15003;DHT22;7597;53.590;10.020;2023-02-01T08:33:26;5.10;1.00
15003;DHT22;7597;53.590;10.020;2023-02-01T08:35:53;5.10;1.00
15003;DHT22;7597;53.590;10.020;2023-02-01T08:38:19;5.20;1.00
15003;DHT22;7597;53.590;10.020;2023-02-01T08:40:46;5.30;1.00
15003;DHT22;7597;53.590;10.020;2023-02-01T08:43:13;5.30;99.90
15003;DHT22;7597;53.590;10.020;2023-02-01T08:45:39;5.20;99.90
15003;DHT22;7597;53.590;10.020;2023-02-01T08:48:06;5.10;99.90
15003;DHT22;7597;53.590;10.020;2023-02-01T08:50:33;5.00;99.90
15003;DHT22;7597;53.590;10.020;2023-02-01T08:53:00;4.90;99.90
15003;DHT22;7597;53.590;10.020;2023-02-01T08:55:26;4.90;99.90
15003;DHT22;7597;53.590;10.020;2023-02-01T08:57:53;4.80;99.90
15003;DHT22;7597;53.590;10.020;2023-02-01T09:00:20;4.90;99.90
15003;DHT22;7597;53.590;10.020;2023-02-01T09:02:46;4.90;99.90
15003;DHT22;7597;53.590;10.020;2023-02-01T09:05:13;5.00;99.90
15003;DHT22;7597;53.590;10.020;2023-02-01T09:07:40;5.10;99.90
15003;DHT22;7597;53.590;10.020;2023-02-01T09:10:07;5.10;99.90
15003;DHT22;7597;53.590;10.020;2023-02-01T09:12:34;5.30;99.90
15003;DHT22;7597;53.590;10.020;2023-02-01T09:15:01;5.50;99.90
15003;DHT22;7597;53.590;10.020;2023-02-01T09:17:28;5.50;99.90
15003;DHT22;7597;53.590;10.020;2023-02-01T09:19:54;5.50;99.90
15003;DHT22;7597;53.590;10.020;2023-02-01T09:22:21;5.50;99.90
15003;DHT22;7597;53.590;10.020;2023-02-01T09:24:47;5.70;99.90
15003;DHT22;7597;53.590;10.020;2023-02-01T09:27:14;6.20;99.90
15003;DHT22;7597;53.590;10.020;2023-02-01T09:29:41;7.10;99.90
15003;DHT22;7597;53.590;10.020;2023-02-01T09:32:07;7.80;84.50
15003;DHT22;7597;53.590;10.020;2023-02-01T09:34:34;7.90;1.00
15003;DHT22;7597;53.590;10.020;2023-02-01T09:37:01;7.80;1.00
15003;DHT22;7597;53.590;10.020;2023-02-01T09:39:27;7.80;1.00
15003;DHT22;7597;53.590;10.020;2023-02-01T09:42:19;7.60;1.00
15003;DHT22;7597;53.590;10.020;2023-02-01T09:44:57;7.40;1.00
15003;DHT22;7597;53.590;10.020;2023-02-01T09:47:21;7.10;1.00
15003;DHT22;7597;53.590;10.020;2023-02-01T09:49:50;6.90;1.00
15003;DHT22;7597;53.590;10.020;2023-02-01T09:52:15;6.70;1.00
15003;DHT22;7597;53.590;10.020;2023-02-01T09:54:44;6.60;1.00
15003;DHT22;7597;53.590;10.020;2023-02-01T09:57:13;6.60;1.00
15003;DHT22;7597;53.590;10.020;2023-02-01T09:59:41;6.60;1.00
15003;DHT22;7597;53.590;10.020;2023-02-01T10:02:13;6.50;1.00
15003;DHT22;7597;53.590;10.020;2023-02-01T10:04:39;6.80;1.00
15003;DHT22;7597;53.590;10.020;2023-02-01T10:07:17;7.30;1.00
15003;DHT22;7597;53.590;10.020;2023-02-01T10:09:50;7.70;1.00
15003;DHT22;7597;53.590;10.020;2023-02-01T10:17:56;7.50;1.00
15003;DHT22;7597;53.590;10.020;2023-02-01T10:20:23;7.50;1.00
15003;DHT22;7597;53.590;10.020;2023-02-01T10:23:04;7.50;1.00
15003;DHT22;7597;53.590;10.020;2023-02-01T10:25:44;7.60;1.00
15003;DHT22;7597;53.590;10.020;2023-02-01T10:28:09;7.50;1.00
15003;DHT22;7597;53.590;10.020;2023-02-01T10:30:38;7.40;1.00
15003;DHT22;7597;53.590;10.020;2023-02-01T10:35:37;7.10;1.00
15003;DHT22;7597;53.590;10.020;2023-02-01T10:38:04;7.00;1.00
15003;DHT22;7597;53.590;10.020;2023-02-01T10:40:31;6.70;1.00
15003;DHT22;7597;53.590;10.020;2023-02-01T10:43:00;6.40;1.00
15003;DHT22;7597;53.590;10.020;2023-02-01T10:45:27;6.30;1.00
15003;DHT22;7597;53.590;10.020;2023-02-01T10:47:55;6.00;1.00
15003;DHT22;7597;53.590;10.020;2023-02-01T10:50:44;5.70;1.00
15003;DHT22;7597;53.590;10.020;2023-02-01T10:53:17;5.60;1.00
15003;DHT22;7597;53.590;10.020;2023-02-01T10:55:50;5.50;62.40
15003;DHT22;7597;53.590;10.020;2023-02-01T10:58:17;5.50;91.30
15003;DHT22;7597;53.590;10.020;2023-02-01T11:00:48;5.40;99.10
15003;DHT22;7597;53.590;10.020;2023-02-01T11:03:21;5.50;99.90
15003;DHT22;7597;53.590;10.020;2023-02-01T11:05:47;5.80;99.90
15003;DHT22;7597;53.590;10.020;2023-02-01T11:08:15;5.40;99.90
15003;DHT22;7597;53.590;10.020;2023-02-01T11:10:42;5.30;99.90
15003;DHT22;7597;53.590;10.020;2023-02-01T11:13:14;5.40;99.90
15003;DHT22;7597;53.590;10.020;2023-02-01T11:15:42;5.40;99.90
15003;DHT22;7597;53.590;10.020;2023-02-01T11:18:17;5.40;99.90
15003;DHT22;7597;53.590;10.020;2023-02-01T11:20:41;5.40;99.90
15003;DHT22;7597;53.590;10.020;2023-02-01T11:23:13;5.40;99.90
15003;DHT22;7597;53.590;10.020;2023-02-01T11:25:38;5.40;99.90
15003;DHT22;7597;53.590;10.020;2023-02-01T11:28:05;5.40;99.90
15003;DHT22;7597;53.590;10.020;2023-02-01T11:30:34;5.40;99.90
15003;DHT22;7597;53.590;10.020;2023-02-01T11:32:59;5.50;99.90
15003;DHT22;7597;53.590;10.020;2023-02-01T11:35:26;5.50;99.90
15003;DHT22;7597;53.590;10.020;2023-02-01T11:37:54;5.60;99.90
15003;DHT22;7597;53.590;10.020;2023-02-01T11:40:23;5.60;99.90
15003;DHT22;7597;53.590;10.020;2023-02-01T11:42:53;5.60;99.90
15003;DHT22;7597;53.590;10.020;2023-02-01T11:45:20;5.70;99.90
15003;DHT22;7597;53.590;10.020;2023-02-01T11:47:46;5.70;99.90
15003;DHT22;7597;53.590;10.020;2023-02-01T11:50:17;5.70;99.90
15003;DHT22;7597;53.590;10.020;2023-02-01T11:52:57;5.70;99.90
15003;DHT22;7597;53.590;10.020;2023-02-01T11:55:29;6.10;99.90
15003;DHT22;7597;53.590;10.020;2023-02-01T12:03:27;5.70;99.90
15003;DHT22;7597;53.590;10.020;2023-02-01T12:06:22;5.60;99.90
15003;DHT22;7597;53.590;10.020;2023-02-01T12:11:41;5.50;99.90
15003;DHT22;7597;53.590;10.020;2023-02-01T12:14:24;5.50;99.90
15003;DHT22;7597;53.590;10.020;2023-02-01T12:17:11;5.40;99.90
15003;DHT22;7597;53.590;10.020;2023-02-01T12:19:58;5.40;99.90
15003;DHT22;7597;53.590;10.020;2023-02-01T12:22:47;5.30;99.90
15003;DHT22;7597;53.590;10.020;2023-02-01T12:27:56;5.20;99.90
15003;DHT22;7597;53.590;10.020;2023-02-01T12:30:28;5.20;99.90
15003;DHT22;7597;53.590;10.020;2023-02-01T12:33:09;5.20;99.90
15003;DHT22;7597;53.590;10.020;2023-02-01T12:35:59;5.10;99.90
15003;DHT22;7597;53.590;10.020;2023-02-01T12:38:41;5.10;99.90
15003;DHT22;7597;53.590;10.020;2023-02-01T12:41:12;5.10;99.90
15003;DHT22;7597;53.590;10.020;2023-02-01T12:43:42;5.00;99.90
15003;DHT22;7597;53.590;10.020;2023-02-01T12:46:12;4.80;99.90
15003;DHT22;7597;53.590;10.020;2023-02-01T12:48:56;4.70;99.90
15003;DHT22;7597;53.590;10.020;2023-02-01T12:51:21;5.00;99.90
15003;DHT22;7597;53.590;10.020;2023-02-01T12:53:51;4.50;99.90
15003;DHT22;7597;53.590;10.020;2023-02-01T12:56:23;4.50;99.90
15003;DHT22;7597;53.590;10.020;2023-02-01T12:58:50;4.40;99.90
15003;DHT22;7597;53.590;10.020;2023-02-01T13:01:20;4.40;99.90
15003;DHT22;7597;53.590;10.020;2023-02-01T13:04:03;4.40;99.90
15003;DHT22;7597;53.590;10.020;2023-02-01T13:06:28;4.30;99.90
15003;DHT22;7597;53.590;10.020;2023-02-01T13:09:33;4.30;99.90
15003;DHT22;7597;53.590;10.020;2023-02-01T13:11:40;4.30;99.90
15003;DHT22;7597;53.590;10.020;2023-02-01T13:16:49;4.30;99.90
15003;DHT22;7597;53.590;10.020;2023-02-01T13:19:19;4.30;99.90
15003;DHT22;7597;53.590;10.020;2023-02-01T13:21:46;4.30;99.90
15003;DHT22;7597;53.590;10.020;2023-02-01T13:24:32;4.40;99.90
15003;DHT22;7597;53.590;10.020;2023-02-01T13:26:57;4.80;99.90
15003;DHT22;7597;53.590;10.020;2023-02-01T13:29:24;5.20;99.90
15003;DHT22;7597;53.590;10.020;2023-02-01T13:35:03;5.40;99.90
15003;DHT22;7597;53.590;10.020;2023-02-01T13:37:31;5.60;99.90
15003;DHT22;7597;53.590;10.020;2023-02-01T13:45:15;5.70;99.90
15003;DHT22;7597;53.590;10.020;2023-02-01T13:47:42;5.70;99.90
15003;DHT22;7597;53.590;10.020;2023-02-01T13:50:19;5.80;99.90
15003;DHT22;7597;53.590;10.020;2023-02-01T13:52:41;5.90;99.90
15003;DHT22;7597;53.590;10.020;2023-02-01T13:55:28;5.80;99.90
15003;DHT22;7597;53.590;10.020;2023-02-01T13:58:02;5.60;92.40
15003;DHT22;7597;53.590;10.020;2023-02-01T14:00:31;5.50;93.60
15003;DHT22;7597;53.590;10.020;2023-02-01T14:03:16;5.40;94.60
15003;DHT22;7597;53.590;10.020;2023-02-01T14:05:57;5.30;92.10
15003;DHT22;7597;53.590;10.020;2023-02-01T14:08:35;5.10;93.60
15003;DHT22;7597;53.590;10.020;2023-02-01T14:10:52;4.90;94.40
15003;DHT22;7597;53.590;10.020;2023-02-01T14:13:27;4.80;97.30
15003;DHT22;7597;53.590;10.020;2023-02-01T14:16:16;4.70;98.50
15003;DHT22;7597;53.590;10.020;2023-02-01T14:18:54;4.50;99.90
15003;DHT22;7597;53.590;10.020;2023-02-01T14:26:50;4.40;99.90
15003;DHT22;7597;53.590;10.020;2023-02-01T14:29:27;4.40;99.90
15003;DHT22;7597;53.590;10.020;2023-02-01T14:34:39;4.20;99.90
15003;DHT22;7597;53.590;10.020;2023-02-01T14:37:06;4.10;99.90
15003;DHT22;7597;53.590;10.020;2023-02-01T14:39:34;4.10;99.90
15003;DHT22;7597;53.590;10.020;2023-02-01T14:42:00;4.00;99.90
15003;DHT22;7597;53.590;10.020;2023-02-01T14:44:27;4.00;99.90
15003;DHT22;7597;53.590;10.020;2023-02-01T14:47:06;4.00;99.90
15003;DHT22;7597;53.590;10.020;2023-02-01T14:49:32;4.00;99.90
15003;DHT22;7597;53.590;10.020;2023-02-01T14:51:59;4.10;99.90
15003;DHT22;7597;53.590;10.020;2023-02-01T14:54:26;4.20;99.90
15003;DHT22;7597;53.590;10.020;2023-02-01T14:56:53;4.20;99.90
15003;DHT22;7597;53.590;10.020;2023-02-01T14:59:20;4.20;99.90
15003;DHT22;7597;53.590;10.020;2023-02-01T15:01:50;4.20;99.90
15003;DHT22;7597;53.590;10.020;2023-02-01T15:04:16;4.20;99.90
15003;DHT22;7597;53.590;10.020;2023-02-01T15:06:49;4.20;99.90
15003;DHT22;7597;53.590;10.020;2023-02-01T15:09:17;4.20;99.90
15003;DHT22;7597;53.590;10.020;2023-02-01T15:11:55;4.50;99.90
15003;DHT22;7597;53.590;10.020;2023-02-01T15:14:21;4.20;99.90
15003;DHT22;7597;53.590;10.020;2023-02-01T15:16:47;4.20;99.90
15003;DHT22;7597;53.590;10.020;2023-02-01T15:19:14;4.20;99.90
15003;DHT22;7597;53.590;10.020;2023-02-01T15:21:43;4.20;99.90
15003;DHT22;7597;53.590;10.020;2023-02-01T15:24:13;4.20;99.90
15003;DHT22;7597;53.590;10.020;2023-02-01T15:26:39;4.40;99.90
15003;DHT22;7597;53.590;10.020;2023-02-01T15:29:09;4.20;99.90
15003;DHT22;7597;53.590;10.020;2023-02-01T15:31:37;4.10;99.90
15003;DHT22;7597;53.590;10.020;2023-02-01T15:34:02;4.10;99.90
15003;DHT22;7597;53.590;10.020;2023-02-01T15:36:29;4.10;99.90
15003;DHT22;7597;53.590;10.020;2023-02-01T15:39:12;4.00;99.90
15003;DHT22;7597;53.590;10.020;2023-02-01T15:41:38;4.00;99.90
15003;DHT22;7597;53.590;10.020;2023-02-01T15:46:57;4.00;99.90
15003;DHT22;7597;53.590;10.020;2023-02-01T15:49:28;4.00;99.90
15003;DHT22;7597;53.590;10.020;2023-02-01T15:51:54;4.00;99.90
15003;DHT22;7597;53.590;10.020;2023-02-01T15:54:25;4.10;99.90
15003;DHT22;7597;53.590;10.020;2023-02-01T15:56:53;4.10;99.90
15003;DHT22;7597;53.590;10.020;2023-02-01T15:59:23;4.10;99.90
15003;DHT22;7597;53.590;10.020;2023-02-01T16:01:49;4.10;99.90
15003;DHT22;7597;53.590;10.020;2023-02-01T16:04:18;4.10;99.90
15003;DHT22;7597;53.590;10.020;2023-02-01T16:06:50;4.10;99.90
15003;DHT22;7597;53.590;10.020;2023-02-01T16:09:16;4.10;99.90
15003;DHT22;7597;53.590;10.020;2023-02-01T16:11:48;4.10;99.90
15003;DHT22;7597;53.590;10.020;2023-02-01T16:14:15;4.10;99.90
15003;DHT22;7597;53.590;10.020;2023-02-01T16:16:42;4.10;99.90
15003;DHT22;7597;53.590;10.020;2023-02-01T16:19:10;4.10;99.90
15003;DHT22;7597;53.590;10.020;2023-02-01T16:21:37;4.10;99.90
15003;DHT22;7597;53.590;10.020;2023-02-01T16:24:04;4.60;99.90
15003;DHT22;7597;53.590;10.020;2023-02-01T16:26:32;4.20;99.90
15003;DHT22;7597;53.590;10.020;2023-02-01T16:28:59;4.10;99.90
15003;DHT22;7597;53.590;10.020;2023-02-01T16:31:27;4.10;99.90
15003;DHT22;7597;53.590;10.020;2023-02-01T16:33:53;4.20;99.90
15003;DHT22;7597;53.590;10.020;2023-02-01T16:36:20;4.30;99.90
15003;DHT22;7597;53.590;10.020;2023-02-01T16:41:43;4.20;99.90
15003;DHT22;7597;53.590;10.020;2023-02-01T16:44:10;4.20;99.90
15003;DHT22;7597;53.590;10.020;2023-02-01T16:46:39;4.30;99.90
15003;DHT22;7597;53.590;10.020;2023-02-01T16:49:23;4.30;99.90
15003;DHT22;7597;53.590;10.020;2023-02-01T16:51:51;4.30;99.90
15003;DHT22;7597;53.590;10.020;2023-02-01T16:54:17;4.30;99.90
15003;DHT22;7597;53.590;10.020;2023-02-01T16:56:44;4.30;99.90
15003;DHT22;7597;53.590;10.020;2023-02-01T16:59:11;4.40;99.90
15003;DHT22;7597;53.590;10.020;2023-02-01T17:01:38;4.20;99.90
15003;DHT22;7597;53.590;10.020;2023-02-01T17:04:04;4.30;99.90
15003;DHT22;7597;53.590;10.020;2023-02-01T17:06:32;4.30;99.90
15003;DHT22;7597;53.590;10.020;2023-02-01T17:08:59;4.40;99.90
15003;DHT22;7597;53.590;10.020;2023-02-01T17:11:26;4.80;99.90
15003;DHT22;7597;53.590;10.020;2023-02-01T17:13:52;4.40;99.90